Armbrust, Pennsylvania
Current Conditions -  °F | °C
As of 11:45 AM on Friday 19 Dec 2014 (Local Time) from KLBE Reporting Station
Haze Haze  
Wind Chill: 20°   Ceiling: 900
Heat Index: 28°   Visibility: 5mi
Dew Point: 28°   Wind: 9mph
Humidity: 100%   Direction: 240°WSW
Pressure: 30.2"   Gusts: NA
Location:  40.22°N, 79.55°W
Report Text: KLBE 191645Z 24008KT 5SM BR BKN009 OVC012 M02/M02 A3020
Loading
Personal Weather Stations






























Interactive Weather Map New forecast layout! Learn more

10-Day Weather Forecast

Advertisements
Track Severe Weather on mobile